Terminal Aerodrome Forecast
Issued by NWS

Current Version | Previous Version | Text Only | Print | Product List | Glossary On
Versions: 1 2 3 4 5 6 7 8 9 10 11 12 13 14 15 16
000
FTUS42 KMLB 181100
TAFFPR
TAF
KFPR 181135Z 1812/1912 09010KT P6SM VCSH SCT025 BKN035
     FM181300 14012G18KT P6SM SCT035 OVC150
     FM182100 14010KT P6SM SHRA VCTS SCT020 BKN040CB OVC060=

USA.gov is the U.S. government's official web portal to all federal, state and local government web resources and services.